Time;durP1;ratioP1;P1;durP2;ratioP2;P2;SDS_P1;SDS_P2;PMS_P1;PMS_P2;Temp;Humidity;BMP_temperature;BMP_pressure;BME280_temperature;BME280_humidity;BME280_pressure;Samples;Min_cycle;Max_cycle;Signal;HPM_P1;HPM_P2
2022/06/28 00:01:02;;;;;;;4.68;0.80;;;11.70;68.00;;;;;;5034146;28;20038;-63
2022/06/28 00:03:29;;;;;;;8.25;1.08;;;11.90;68.30;;;;;;5040306;28;20025;-61
2022/06/28 00:05:56;;;;;;;2.95;0.60;;;12.00;66.90;;;;;;5037745;28;20074;-61
2022/06/28 00:08:23;;;;;;;3.17;0.52;;;12.00;67.40;;;;;;5036697;28;20056;-62
2022/06/28 00:10:51;;;;;;;4.47;0.88;;;12.10;67.60;;;;;;5040422;28;20402;-63
2022/06/28 00:13:18;;;;;;;3.03;1.60;;;12.20;66.50;;;;;;5039142;28;20029;-64
2022/06/28 00:18:31;;;;;;;2.90;0.55;;;12.30;66.80;;;;;;5039618;28;20032;-63
2022/06/28 00:20:58;;;;;;;4.45;1.27;;;12.30;66.10;;;;;;5039972;28;20021;-64
2022/06/28 00:23:25;;;;;;;3.58;0.73;;;12.50;66.40;;;;;;5045058;28;20025;-64
2022/06/28 00:25:53;;;;;;;3.67;1.00;;;12.50;66.40;;;;;;5043759;28;20577;-63
2022/06/28 00:28:20;;;;;;;2.05;0.70;;;12.60;66.50;;;;;;5037391;28;20029;-63
2022/06/28 00:30:47;;;;;;;5.47;0.75;;;12.70;66.10;;;;;;5038954;28;20022;-64
2022/06/28 00:33:15;;;;;;;4.88;0.80;;;12.90;66.40;;;;;;5042292;28;20432;-64
2022/06/28 00:35:42;;;;;;;1.90;0.63;;;12.90;65.20;;;;;;5040694;28;20371;-64
2022/06/28 00:38:10;;;;;;;4.93;0.82;;;12.90;65.60;;;;;;5043209;28;20033;-64
2022/06/28 00:40:49;;;;;;;2.90;0.90;;;13.00;65.40;;;;;;5040769;28;20013;-65
2022/06/28 00:43:17;;;;;;;4.55;1.05;;;13.10;65.50;;;;;;5040870;28;20111;-65
2022/06/28 00:45:45;;;;;;;3.33;0.70;;;13.20;65.60;;;;;;5041530;28;20029;-64
2022/06/28 00:48:15;;;;;;;8.98;1.23;;;13.30;65.80;;;;;;5039824;28;20371;-65
2022/06/28 00:50:43;;;;;;;6.53;0.77;;;13.40;64.70;;;;;;5040165;28;20070;-65
2022/06/28 00:53:16;;;;;;;3.83;0.77;;;13.40;65.50;;;;;;5038951;28;20136;-65
2022/06/28 00:55:44;;;;;;;2.15;0.60;;;13.50;64.80;;;;;;5038208;28;20477;-64
2022/06/28 00:58:13;;;;;;;5.13;1.38;;;13.60;64.80;;;;;;5038525;28;20030;-65
2022/06/28 01:00:43;;;;;;;7.57;1.02;;;13.70;65.40;;;;;;5039924;28;20041;-65
2022/06/28 01:03:14;;;;;;;5.95;0.90;;;13.80;64.70;;;;;;5036228;28;20025;-65
2022/06/28 01:05:43;;;;;;;3.00;0.57;;;14.00;65.00;;;;;;5032236;28;20043;-67
2022/06/28 01:08:11;;;;;;;3.72;0.73;;;14.20;64.50;;;;;;5032603;28;20026;-65
2022/06/28 01:10:38;;;;;;;3.05;0.80;;;14.40;64.70;;;;;;5037522;28;20035;-65
2022/06/28 01:13:07;;;;;;;3.55;1.00;;;14.40;64.40;;;;;;5044318;28;20024;-65
2022/06/28 01:15:34;;;;;;;4.38;1.27;;;14.40;65.10;;;;;;5031559;28;20040;-65
2022/06/28 01:18:03;;;;;;;3.00;0.77;;;14.40;65.00;;;;;;5030227;28;20485;-64
2022/06/28 01:20:30;;;;;;;5.57;1.65;;;14.40;64.20;;;;;;5031721;28;20345;-64
2022/06/28 01:22:58;;;;;;;4.07;0.70;;;14.40;64.20;;;;;;5036383;28;20030;-63
2022/06/28 01:25:25;;;;;;;2.00;0.60;;;14.50;65.00;;;;;;5038304;28;20127;-63
2022/06/28 01:27:54;;;;;;;2.95;0.75;;;14.50;65.10;;;;;;5036368;28;20025;-63
2022/06/28 01:30:22;;;;;;;1.30;0.40;;;14.70;65.10;;;;;;5034519;28;20028;-63
2022/06/28 01:32:51;;;;;;;5.45;2.05;;;14.70;65.20;;;;;;5039238;28;20056;-63
2022/06/28 01:35:18;;;;;;;3.50;1.15;;;14.90;65.60;;;;;;5043496;28;20016;-64
2022/06/28 01:37:49;;;;;;;4.40;0.77;;;15.00;66.00;;;;;;5040462;28;20048;-63
2022/06/28 01:40:17;;;;;;;2.75;0.68;;;15.10;64.30;;;;;;5043900;28;20116;-63
2022/06/28 01:42:44;;;;;;;3.92;0.50;;;15.20;65.30;;;;;;5039954;28;20101;-63
2022/06/28 01:45:13;;;;;;;5.53;0.80;;;15.20;64.40;;;;;;5035125;28;20022;-64
2022/06/28 01:47:44;;;;;;;2.22;0.70;;;15.30;64.50;;;;;;5041459;28;20083;-64
2022/06/28 01:50:12;;;;;;;1.88;0.50;;;15.40;64.80;;;;;;5038266;28;20394;-64
2022/06/28 01:52:43;;;;;;;3.20;0.77;;;15.50;64.00;;;;;;5039280;28;20107;-64
2022/06/28 01:55:11;;;;;;;4.65;1.10;;;15.70;63.90;;;;;;5042970;28;20019;-64
2022/06/28 01:57:39;;;;;;;4.57;0.80;;;15.80;63.10;;;;;;5041694;28;20029;-64
2022/06/28 02:00:08;;;;;;;5.10;0.90;;;15.90;63.30;;;;;;5042773;28;20377;-64
2022/06/28 02:02:36;;;;;;;4.75;0.98;;;16.00;63.10;;;;;;5041974;28;20083;-61
2022/06/28 02:05:03;;;;;;;3.70;0.80;;;15.80;62.20;;;;;;5043283;28;20104;-65
2022/06/28 02:07:31;;;;;;;2.28;0.65;;;15.60;63.80;;;;;;5038602;28;20028;-67
2022/06/28 02:09:58;;;;;;;6.32;0.73;;;15.60;64.50;;;;;;5039763;28;20017;-62
2022/06/28 02:12:28;;;;;;;0.45;0.28;;;15.70;63.10;;;;;;5075264;28;20030;-67
2022/06/28 02:14:59;;;;;;;5.13;0.88;;;15.80;63.50;;;;;;5048491;28;20025;-66
2022/06/28 02:17:26;;;;;;;2.42;0.77;;;15.90;63.50;;;;;;5038538;28;20065;-65
2022/06/28 02:19:54;;;;;;;5.70;0.90;;;16.10;62.90;;;;;;5043684;28;20028;-64
2022/06/28 02:22:21;;;;;;;7.28;0.75;;;16.10;62.50;;;;;;5040982;28;20482;-64
2022/06/28 02:24:51;;;;;;;6.65;1.00;;;16.20;63.00;;;;;;5051701;28;20029;-63
2022/06/28 02:27:19;;;;;;;5.10;0.73;;;16.10;62.90;;;;;;5041835;28;20045;-64
2022/06/28 02:29:46;;;;;;;3.08;1.00;;;16.00;62.90;;;;;;5047873;28;20064;-64
2022/06/28 02:32:14;;;;;;;8.60;1.13;;;16.00;62.40;;;;;;5044890;28;20021;-64
2022/06/28 02:40:26;;;;;;;5.47;0.90;;;16.20;62.40;;;;;;5039798;28;20087;-69
2022/06/28 02:42:59;;;;;;;4.90;0.93;;;16.20;62.40;;;;;;5040765;28;20063;-72
2022/06/28 02:45:32;;;;;;;12.63;0.90;;;16.30;61.80;;;;;;5038394;28;20025;-70
2022/06/28 02:47:59;;;;;;;3.80;0.60;;;16.40;61.40;;;;;;5042609;28;20028;-70
2022/06/28 02:50:27;;;;;;;2.88;0.60;;;16.40;61.30;;;;;;5043267;28;20539;-68
2022/06/28 02:52:54;;;;;;;5.13;1.23;;;16.50;61.30;;;;;;5042027;28;20029;-70
2022/06/28 02:55:21;;;;;;;6.57;0.90;;;16.50;60.80;;;;;;5040287;28;20025;-71
2022/06/28 02:57:49;;;;;;;5.72;1.00;;;16.50;61.00;;;;;;5039485;28;20029;-69
2022/06/28 03:00:18;;;;;;;1.85;0.70;;;16.50;60.60;;;;;;5042529;28;20040;-73
2022/06/28 03:02:47;;;;;;;3.83;0.57;;;16.40;60.20;;;;;;5043343;28;20029;-71
2022/06/28 03:05:17;;;;;;;6.47;0.57;;;16.30;61.10;;;;;;5042479;28;20034;-71
2022/06/28 03:07:45;;;;;;;2.95;0.70;;;16.20;60.60;;;;;;5038320;28;20028;-71
2022/06/28 03:10:13;;;;;;;2.70;0.52;;;16.10;61.20;;;;;;5051280;28;20025;-74
2022/06/28 03:12:41;;;;;;;3.17;0.50;;;16.00;61.30;;;;;;5046312;28;20386;-71
2022/06/28 03:15:09;;;;;;;8.18;0.68;;;15.90;61.90;;;;;;5047496;28;20413;-65
2022/06/28 03:17:36;;;;;;;1.42;0.47;;;15.80;63.20;;;;;;5041329;28;20037;-66
2022/06/28 03:20:03;;;;;;;4.20;1.10;;;15.80;63.80;;;;;;5056748;28;20381;-65
2022/06/28 03:22:30;;;;;;;4.15;1.08;;;15.70;64.10;;;;;;5045635;28;20025;-67
2022/06/28 03:24:58;;;;;;;1.70;0.65;;;15.80;63.70;;;;;;5039759;28;20021;-63
2022/06/28 03:27:25;;;;;;;1.63;1.00;;;15.70;63.20;;;;;;5041005;28;20099;-63
2022/06/28 03:29:52;;;;;;;2.55;0.50;;;15.60;63.70;;;;;;5049240;28;20374;-63
2022/06/28 03:32:20;;;;;;;6.82;0.90;;;15.60;63.80;;;;;;5050803;28;20387;-64
2022/06/28 03:34:47;;;;;;;2.60;0.55;;;15.50;64.50;;;;;;5046974;28;20025;-64
2022/06/28 03:37:15;;;;;;;3.72;1.02;;;15.40;63.90;;;;;;5051212;28;20377;-65
2022/06/28 03:39:42;;;;;;;2.60;0.90;;;15.30;64.40;;;;;;5060186;28;20028;-64
2022/06/28 03:42:10;;;;;;;4.95;0.90;;;15.30;64.40;;;;;;5056014;28;20075;-64
2022/06/28 03:44:37;;;;;;;3.50;0.63;;;15.30;64.70;;;;;;5051083;28;20029;-64
2022/06/28 03:47:04;;;;;;;3.05;0.68;;;15.20;64.80;;;;;;5047778;28;21301;-64
2022/06/28 03:49:32;;;;;;;14.32;1.02;;;15.20;65.40;;;;;;5045951;28;20029;-72
2022/06/28 03:51:59;;;;;;;6.15;1.17;;;15.20;66.20;;;;;;5044331;28;20025;-69
2022/06/28 03:54:27;;;;;;;4.18;0.93;;;15.30;66.10;;;;;;5066947;28;20031;-70
2022/06/28 03:56:54;;;;;;;4.07;0.70;;;15.20;66.20;;;;;;5045961;28;20044;-69
2022/06/28 03:59:22;;;;;;;2.38;0.50;;;15.30;66.50;;;;;;5045925;28;20090;-69
2022/06/28 04:01:49;;;;;;;3.88;1.10;;;15.30;66.70;;;;;;5049019;28;20420;-69
2022/06/28 04:04:16;;;;;;;1.52;0.63;;;15.40;66.40;;;;;;5055960;28;20393;-69
2022/06/28 04:06:44;;;;;;;0.60;0.40;;;15.40;67.00;;;;;;5044617;28;20083;-68
2022/06/28 04:09:11;;;;;;;4.50;1.00;;;15.30;67.90;;;;;;5039229;28;20090;-68
2022/06/28 04:11:38;;;;;;;4.75;1.15;;;15.30;68.80;;;;;;5059225;28;20027;-70
2022/06/28 04:14:06;;;;;;;10.05;0.88;;;15.30;68.90;;;;;;5047960;28;20056;-70
2022/06/28 04:16:33;;;;;;;3.05;0.75;;;15.40;69.50;;;;;;5044467;28;20106;-69
2022/06/28 04:19:00;;;;;;;1.92;0.63;;;15.60;68.90;;;;;;5065521;28;20520;-69
2022/06/28 04:21:27;;;;;;;5.75;0.98;;;15.60;68.50;;;;;;5051346;28;20021;-69
2022/06/28 04:23:55;;;;;;;4.43;0.80;;;15.50;68.40;;;;;;5050882;28;20033;-69
2022/06/28 04:26:22;;;;;;;1.80;0.70;;;15.50;68.10;;;;;;5046653;28;20019;-70
2022/06/28 04:28:49;;;;;;;2.67;1.27;;;15.50;68.30;;;;;;5054851;28;20381;-69
2022/06/28 04:31:17;;;;;;;3.55;0.95;;;15.50;68.80;;;;;;5054533;28;20473;-70
2022/06/28 04:33:44;;;;;;;2.45;0.88;;;15.50;69.20;;;;;;5056087;28;20025;-69
2022/06/28 04:36:12;;;;;;;2.80;0.52;;;15.70;69.20;;;;;;5059481;28;20025;-69
2022/06/28 04:38:39;;;;;;;3.35;0.90;;;15.70;67.70;;;;;;5053092;28;20037;-69
2022/06/28 04:41:06;;;;;;;5.20;1.52;;;15.60;67.60;;;;;;5068114;28;20470;-70
2022/06/28 04:43:33;;;;;;;3.45;1.02;;;15.60;68.50;;;;;;5056804;28;20615;-69
2022/06/28 04:46:01;;;;;;;5.22;0.90;;;15.50;69.10;;;;;;5060209;28;20020;-68
2022/06/28 04:48:28;;;;;;;2.55;0.88;;;15.30;68.80;;;;;;5052774;28;20025;-69
2022/06/28 04:50:55;;;;;;;5.13;0.80;;;15.30;69.40;;;;;;5057650;28;20402;-69
2022/06/28 04:53:22;;;;;;;2.25;0.77;;;15.20;69.30;;;;;;5063798;28;20037;-69
2022/06/28 04:55:50;;;;;;;6.80;1.10;;;15.10;69.20;;;;;;5061858;28;20067;-70
2022/06/28 04:58:17;;;;;;;3.55;0.40;;;15.10;69.80;;;;;;5063301;28;20071;-69
2022/06/28 05:00:44;;;;;;;2.45;0.70;;;15.00;69.90;;;;;;5054209;28;20404;-69
2022/06/28 05:03:11;;;;;;;3.85;0.80;;;15.10;69.80;;;;;;5036214;28;20477;-64
2022/06/28 05:05:39;;;;;;;6.32;0.85;;;15.10;70.10;;;;;;5058558;28;20023;-64
2022/06/28 05:08:06;;;;;;;3.40;0.85;;;15.10;70.60;;;;;;5055532;28;20048;-64
2022/06/28 05:10:33;;;;;;;4.60;1.08;;;15.00;70.30;;;;;;5047995;28;20039;-64
2022/06/28 05:13:00;;;;;;;7.75;1.08;;;15.00;71.10;;;;;;5048974;28;20079;-64
2022/06/28 05:15:28;;;;;;;3.17;1.17;;;14.90;71.20;;;;;;5045026;28;20091;-64
2022/06/28 05:17:55;;;;;;;3.75;0.60;;;14.80;71.60;;;;;;5044912;28;20037;-64
2022/06/28 05:20:22;;;;;;;1.58;0.50;;;14.90;71.80;;;;;;5032939;28;20025;-64
2022/06/28 05:22:49;;;;;;;4.50;0.55;;;14.80;71.50;;;;;;5034896;28;20032;-64
2022/06/28 05:25:17;;;;;;;7.38;0.75;;;14.70;71.30;;;;;;5039202;28;20021;-64
2022/06/28 05:27:45;;;;;;;3.70;0.77;;;14.70;71.60;;;;;;5036077;28;20088;-64
2022/06/28 05:30:12;;;;;;;3.72;0.80;;;14.60;71.80;;;;;;5041609;28;20496;-64
2022/06/28 05:32:39;;;;;;;2.50;0.57;;;14.60;71.70;;;;;;5044013;28;20033;-64
2022/06/28 05:35:07;;;;;;;2.28;0.80;;;14.60;71.90;;;;;;5058451;28;20111;-64
2022/06/28 05:37:34;;;;;;;2.10;0.88;;;14.60;71.40;;;;;;5037079;28;20389;-64
2022/06/28 05:40:03;;;;;;;1.98;1.30;;;14.60;72.00;;;;;;5042854;28;20798;-63
2022/06/28 05:42:30;;;;;;;2.35;1.00;;;14.60;72.30;;;;;;5038620;28;20013;-64
2022/06/28 05:44:57;;;;;;;3.20;0.73;;;14.50;72.30;;;;;;5050392;28;20045;-63
2022/06/28 05:47:24;;;;;;;3.70;1.15;;;14.40;72.50;;;;;;5045590;28;20053;-64
2022/06/28 05:49:51;;;;;;;2.90;0.80;;;14.40;72.40;;;;;;5052904;28;20032;-64
2022/06/28 05:52:19;;;;;;;10.02;1.08;;;14.40;73.90;;;;;;5051414;28;20028;-64
2022/06/28 05:54:46;;;;;;;4.00;1.20;;;14.30;73.20;;;;;;5037894;28;20033;-64
2022/06/28 05:57:13;;;;;;;1.58;0.60;;;14.30;73.60;;;;;;5053824;28;20111;-64
2022/06/28 05:59:41;;;;;;;2.58;0.70;;;14.30;73.50;;;;;;5044160;28;20124;-64
2022/06/28 06:02:08;;;;;;;4.00;1.48;;;14.30;73.70;;;;;;5056816;28;20017;-64
2022/06/28 06:04:35;;;;;;;4.15;2.15;;;14.30;73.70;;;;;;5061784;28;20032;-64
2022/06/28 06:07:02;;;;;;;7.93;2.70;;;14.30;73.90;;;;;;5051844;28;20059;-63
2022/06/28 06:09:30;;;;;;;2.20;1.00;;;14.30;73.90;;;;;;5063221;28;20112;-64
2022/06/28 06:11:57;;;;;;;6.38;4.50;;;14.30;74.20;;;;;;5056882;28;20536;-64
2022/06/28 06:14:24;;;;;;;3.28;1.60;;;14.30;73.30;;;;;;5061075;28;20028;-64
2022/06/28 06:16:51;;;;;;;2.78;1.80;;;14.30;74.10;;;;;;5055924;28;20059;-64
2022/06/28 06:19:22;;;;;;;3.88;0.90;;;14.20;73.90;;;;;;5054391;28;20292;-64
2022/06/28 06:21:49;;;;;;;4.47;1.60;;;14.20;73.80;;;;;;5060341;28;20465;-64
2022/06/28 06:24:17;;;;;;;5.53;1.80;;;14.20;74.10;;;;;;5061885;28;20468;-64
2022/06/28 06:26:44;;;;;;;5.70;0.80;;;14.10;74.00;;;;;;5052313;28;20047;-64
2022/06/28 06:29:12;;;;;;;5.78;1.35;;;14.10;74.00;;;;;;5037012;28;20024;-64
2022/06/28 06:31:39;;;;;;;7.45;2.20;;;14.00;74.40;;;;;;5058699;28;20500;-64
2022/06/28 06:34:06;;;;;;;3.22;1.60;;;14.10;74.50;;;;;;5042127;28;20435;-64
2022/06/28 06:36:35;;;;;;;5.28;1.10;;;14.00;74.40;;;;;;5064018;28;20028;-64
2022/06/28 06:39:02;;;;;;;3.83;1.15;;;14.00;75.90;;;;;;5058591;28;20028;-64
2022/06/28 06:41:30;;;;;;;7.13;1.20;;;13.90;75.50;;;;;;5055230;28;20052;-64
2022/06/28 06:43:57;;;;;;;6.05;1.17;;;13.90;75.40;;;;;;5058821;28;20056;-64
2022/06/28 06:46:24;;;;;;;5.68;1.15;;;13.90;76.00;;;;;;5061434;28;20048;-64
2022/06/28 06:48:52;;;;;;;4.00;1.50;;;13.90;75.90;;;;;;5053102;28;20036;-64
2022/06/28 06:51:19;;;;;;;3.78;1.30;;;13.90;75.50;;;;;;5047679;28;20079;-64
2022/06/28 06:53:46;;;;;;;8.23;1.55;;;13.90;76.10;;;;;;5051447;28;20037;-64
2022/06/28 06:56:13;;;;;;;9.77;1.08;;;13.80;76.00;;;;;;5049972;28;20017;-64
2022/06/28 06:58:41;;;;;;;3.50;0.52;;;13.90;75.70;;;;;;5055968;28;20040;-64
2022/06/28 07:01:09;;;;;;;1.92;0.95;;;13.80;74.60;;;;;;5051805;28;20406;-64
2022/06/28 07:03:40;;;;;;;4.65;0.75;;;13.70;76.20;;;;;;5047556;28;20029;-64
2022/06/28 07:06:07;;;;;;;2.75;0.60;;;13.50;76.80;;;;;;5052585;28;20016;-64
2022/06/28 07:08:35;;;;;;;2.88;0.93;;;13.40;75.90;;;;;;5039889;28;20037;-66
2022/06/28 07:11:03;;;;;;;3.25;0.90;;;13.40;76.60;;;;;;5048892;28;20135;-69
2022/06/28 07:13:30;;;;;;;1.92;0.88;;;13.30;76.60;;;;;;5038332;28;20025;-68
2022/06/28 07:15:57;;;;;;;1.95;0.65;;;13.30;76.60;;;;;;5046646;28;20084;-68
2022/06/28 07:18:25;;;;;;;5.40;1.27;;;13.20;76.70;;;;;;5044204;28;20030;-66
2022/06/28 07:20:54;;;;;;;3.55;1.50;;;13.10;76.90;;;;;;5044964;28;20430;-66
2022/06/28 07:23:22;;;;;;;4.97;1.38;;;13.20;77.10;;;;;;5041361;28;20029;-67
2022/06/28 07:25:49;;;;;;;3.80;0.57;;;13.10;77.60;;;;;;5038886;28;20032;-65
2022/06/28 07:28:16;;;;;;;1.17;0.28;;;13.20;77.20;;;;;;5042207;28;20021;-67
2022/06/28 07:30:44;;;;;;;6.00;0.70;;;13.10;76.70;;;;;;5032808;28;20029;-67
2022/06/28 07:33:11;;;;;;;2.35;0.57;;;13.20;76.70;;;;;;5033233;28;20029;-67
2022/06/28 07:35:39;;;;;;;2.58;0.77;;;13.20;76.50;;;;;;5040488;28;20009;-67
2022/06/28 07:38:06;;;;;;;5.55;0.80;;;13.20;76.10;;;;;;5049681;28;20041;-67
2022/06/28 07:40:33;;;;;;;3.45;0.75;;;13.20;76.10;;;;;;5041280;28;20074;-66
2022/06/28 07:43:01;;;;;;;2.15;0.82;;;13.20;75.90;;;;;;5040595;28;20021;-67
2022/06/28 07:45:29;;;;;;;2.00;1.02;;;13.10;76.60;;;;;;5039285;28;20029;-66
2022/06/28 07:47:56;;;;;;;8.23;1.00;;;13.10;76.90;;;;;;5035467;28;20013;-66
2022/06/28 07:53:09;;;;;;;2.80;0.90;;;13.00;76.90;;;;;;5039202;28;20041;-65
2022/06/28 07:55:36;;;;;;;7.18;0.93;;;13.00;77.60;;;;;;5033011;28;20067;-67
2022/06/28 07:58:03;;;;;;;4.40;1.00;;;13.00;77.90;;;;;;5032031;28;20061;-67
2022/06/28 08:00:30;;;;;;;4.90;1.05;;;13.10;77.90;;;;;;5039546;28;20025;-67
2022/06/28 08:02:58;;;;;;;4.80;0.73;;;13.10;77.70;;;;;;5031726;28;20057;-67
2022/06/28 08:05:25;;;;;;;2.00;0.70;;;13.10;77.70;;;;;;5041707;28;20025;-67
2022/06/28 08:07:53;;;;;;;2.92;0.70;;;13.10;78.10;;;;;;5031743;28;20041;-67
2022/06/28 08:10:20;;;;;;;1.27;0.57;;;13.00;78.10;;;;;;5031160;28;20087;-67
2022/06/28 08:12:47;;;;;;;1.83;0.60;;;12.90;78.70;;;;;;5039170;28;20428;-69
2022/06/28 08:15:15;;;;;;;4.03;0.75;;;13.00;79.10;;;;;;5039105;28;20041;-68
2022/06/28 08:17:42;;;;;;;4.95;0.80;;;12.90;78.80;;;;;;5037211;28;20036;-68
2022/06/28 08:20:10;;;;;;;1.75;0.77;;;12.90;79.10;;;;;;5034910;28;20490;-69
2022/06/28 08:22:37;;;;;;;2.63;0.80;;;12.90;79.00;;;;;;5035434;28;20537;-68
2022/06/28 08:25:05;;;;;;;2.80;0.90;;;12.90;79.30;;;;;;5033107;28;20048;-69
2022/06/28 08:27:33;;;;;;;3.50;0.77;;;12.90;79.20;;;;;;5031177;28;20607;-68
2022/06/28 08:30:00;;;;;;;2.97;0.82;;;12.80;79.30;;;;;;5037399;28;20474;-68
2022/06/28 08:32:27;;;;;;;3.05;0.80;;;12.80;79.40;;;;;;5030725;28;20021;-69
2022/06/28 08:34:54;;;;;;;1.70;0.65;;;12.70;79.10;;;;;;5030647;28;20040;-69
2022/06/28 08:37:22;;;;;;;1.98;0.90;;;12.70;79.40;;;;;;5041814;28;20017;-68
2022/06/28 08:39:49;;;;;;;4.60;1.63;;;12.60;79.50;;;;;;5038065;28;20040;-68
2022/06/28 08:42:26;;;;;;;6.57;2.83;;;12.60;80.50;;;;;;5038631;28;20440;-69
2022/06/28 08:44:59;;;;;;;5.22;3.17;;;12.60;81.10;;;;;;5047100;28;20033;-69
2022/06/28 08:47:29;;;;;;;4.75;1.60;;;12.60;81.10;;;;;;5046670;28;20113;-66
2022/06/28 08:50:10;;;;;;;3.90;1.65;;;12.60;81.10;;;;;;5046052;28;20025;-69
2022/06/28 08:52:38;;;;;;;1.55;0.73;;;12.60;80.90;;;;;;5039200;28;20477;-69
2022/06/28 08:55:06;;;;;;;2.03;0.90;;;12.50;80.80;;;;;;5045311;28;20040;-66
2022/06/28 08:57:35;;;;;;;4.50;1.05;;;12.50;80.90;;;;;;5042146;28;20532;-68
2022/06/28 09:00:09;;;;;;;7.13;1.15;;;12.40;81.10;;;;;;5038255;28;20043;-67
2022/06/28 09:02:37;;;;;;;4.63;0.90;;;12.50;81.30;;;;;;5035306;28;20063;-66
2022/06/28 09:05:05;;;;;;;5.40;1.20;;;12.40;81.40;;;;;;5034806;28;20029;-67
2022/06/28 09:07:32;;;;;;;5.07;1.10;;;12.40;81.50;;;;;;5036210;28;20273;-67
2022/06/28 09:09:59;;;;;;;4.68;2.22;;;12.40;81.60;;;;;;5035236;28;20029;-67
2022/06/28 09:12:26;;;;;;;6.05;1.00;;;12.40;81.50;;;;;;5036636;28;20748;-67
2022/06/28 09:14:54;;;;;;;4.20;1.48;;;12.30;81.80;;;;;;5035898;28;20040;-67
2022/06/28 09:17:24;;;;;;;2.40;1.23;;;12.40;82.30;;;;;;5033574;28;20037;-67
2022/06/28 09:20:06;;;;;;;3.90;1.95;;;12.30;82.60;;;;;;5035346;28;20049;-66
2022/06/28 09:22:40;;;;;;;4.68;2.70;;;12.30;83.60;;;;;;5035847;28;20018;-66
2022/06/28 09:25:13;;;;;;;3.83;2.20;;;12.40;83.40;;;;;;5034988;28;20029;-67
2022/06/28 09:27:42;;;;;;;5.97;1.65;;;12.30;83.60;;;;;;5027450;28;20083;-67
2022/06/28 09:30:13;;;;;;;11.38;5.00;;;12.40;83.60;;;;;;5039274;28;20048;-66
2022/06/28 09:32:41;;;;;;;6.28;3.20;;;12.40;82.90;;;;;;5043214;28;20036;-67
2022/06/28 09:35:11;;;;;;;3.50;1.73;;;12.40;82.80;;;;;;5046430;28;20044;-67
2022/06/28 09:37:41;;;;;;;6.72;2.78;;;12.40;82.80;;;;;;5046098;28;20037;-66
2022/06/28 09:40:23;;;;;;;5.78;2.80;;;12.40;82.50;;;;;;5029208;28;20021;-66
2022/06/28 09:43:16;;;;;;;5.30;1.45;;;12.40;82.40;;;;;;5037168;28;20017;-66
2022/06/28 09:45:47;;;;;;;6.22;1.33;;;12.40;82.60;;;;;;5045950;28;20115;-65
2022/06/28 09:48:19;;;;;;;3.85;1.30;;;12.40;82.20;;;;;;5042291;28;20022;-65
2022/06/28 09:50:46;;;;;;;8.90;1.48;;;12.30;81.70;;;;;;5036182;28;20030;-66
2022/06/28 09:53:16;;;;;;;6.15;1.95;;;12.30;81.80;;;;;;5037339;28;20519;-65
2022/06/28 09:55:44;;;;;;;3.97;1.17;;;12.30;82.00;;;;;;5034463;28;20032;-65
2022/06/28 09:58:11;;;;;;;4.43;1.00;;;12.20;81.80;;;;;;5036402;28;20025;-65
2022/06/28 10:00:41;;;;;;;6.32;2.35;;;12.20;81.90;;;;;;5047978;28;20021;-65
2022/06/28 10:03:09;;;;;;;7.13;1.65;;;12.20;82.60;;;;;;5037285;28;20028;-66
2022/06/28 10:05:36;;;;;;;3.17;1.10;;;12.20;82.90;;;;;;5035109;28;20027;-65
2022/06/28 10:08:04;;;;;;;5.45;1.35;;;12.10;82.70;;;;;;5045513;28;20037;-66
2022/06/28 10:10:32;;;;;;;5.03;2.05;;;12.10;82.70;;;;;;5031524;28;20197;-66
2022/06/28 10:16:19;;;;;;;4.55;1.50;;;12.10;82.70;;;;;;5046472;28;20064;-66
2022/06/28 10:18:48;;;;;;;7.00;1.02;;;12.10;82.40;;;;;;5045656;28;20128;-67
2022/06/28 10:21:16;;;;;;;2.70;1.33;;;12.10;82.50;;;;;;5039497;28;20397;-66
2022/06/28 10:23:48;;;;;;;3.55;1.40;;;12.10;82.60;;;;;;5034231;28;20033;-66
2022/06/28 10:26:20;;;;;;;9.63;1.50;;;12.10;82.50;;;;;;5024816;28;20053;-66
2022/06/28 10:29:08;;;;;;;5.05;1.20;;;12.10;82.60;;;;;;5037646;28;20478;-68
2022/06/28 10:31:43;;;;;;;10.20;1.50;;;12.20;82.80;;;;;;5028626;28;20102;-66
2022/06/28 10:34:22;;;;;;;10.10;1.52;;;12.20;82.80;;;;;;5035821;28;20100;-67
2022/06/28 10:36:54;;;;;;;6.20;1.88;;;12.10;82.60;;;;;;5031045;28;20029;-67
2022/06/28 10:39:23;;;;;;;4.00;1.40;;;12.20;82.40;;;;;;5044632;28;20086;-67
2022/06/28 10:42:13;;;;;;;4.55;1.73;;;12.20;82.60;;;;;;5040064;28;20026;-67
2022/06/28 10:44:40;;;;;;;4.78;2.15;;;12.30;82.30;;;;;;5027343;28;20451;-67
2022/06/28 10:47:07;;;;;;;7.82;1.80;;;12.30;81.90;;;;;;5027033;28;20017;-67
2022/06/28 10:49:48;;;;;;;3.42;1.40;;;12.40;81.40;;;;;;5027067;28;20383;-66
2022/06/28 10:52:35;;;;;;;4.97;1.30;;;12.40;81.30;;;;;;5032585;28;20033;-67
2022/06/28 10:55:03;;;;;;;5.22;1.63;;;12.30;82.00;;;;;;5041115;28;20508;-68
2022/06/28 10:57:33;;;;;;;2.33;0.70;;;12.20;82.00;;;;;;5034475;28;20055;-68
2022/06/28 11:00:05;;;;;;;2.08;0.52;;;12.10;81.60;;;;;;5029257;28;20083;-68
2022/06/28 11:02:50;;;;;;;2.88;0.60;;;12.10;81.50;;;;;;5033053;28;20202;-67
2022/06/28 11:05:20;;;;;;;6.43;1.38;;;12.00;82.10;;;;;;5032380;28;20064;-68
2022/06/28 11:08:01;;;;;;;4.40;0.82;;;12.00;82.40;;;;;;5030166;28;20028;-68
2022/06/28 11:10:32;;;;;;;1.73;0.80;;;12.00;82.10;;;;;;5043297;28;20086;-67
2022/06/28 11:13:21;;;;;;;4.20;1.30;;;12.10;81.80;;;;;;5026964;28;20052;-67
2022/06/28 11:15:49;;;;;;;2.08;0.70;;;12.10;81.20;;;;;;5028203;28;20582;-67
2022/06/28 11:18:20;;;;;;;6.28;1.60;;;12.10;81.00;;;;;;5041079;28;20029;-68
2022/06/28 11:20:47;;;;;;;4.60;0.95;;;12.10;80.80;;;;;;5032787;28;20083;-67
2022/06/28 11:23:29;;;;;;;3.83;1.40;;;12.10;80.90;;;;;;5034651;28;20021;-69
2022/06/28 11:28:57;;;;;;;3.08;1.05;;;12.10;80.70;;;;;;5042463;28;20044;-68
2022/06/28 11:31:25;;;;;;;3.15;1.20;;;12.10;81.10;;;;;;5039922;28;20073;-69
2022/06/28 11:33:54;;;;;;;3.50;0.90;;;12.10;80.60;;;;;;5035501;28;20553;-68
2022/06/28 11:36:30;;;;;;;2.17;0.80;;;12.10;80.60;;;;;;5032987;28;20042;-69
2022/06/28 11:39:22;;;;;;;4.63;1.45;;;12.10;80.70;;;;;;5035604;28;20037;-67
2022/06/28 11:41:49;;;;;;;3.45;1.30;;;12.00;80.80;;;;;;5033851;28;20056;-67
2022/06/28 11:44:17;;;;;;;8.80;1.55;;;11.90;81.50;;;;;;5026512;28;20100;-68
2022/06/28 11:46:49;;;;;;;4.15;1.55;;;11.80;81.70;;;;;;5036420;28;20481;-68
2022/06/28 11:49:36;;;;;;;6.15;1.90;;;11.70;82.00;;;;;;5040315;28;20666;-68
2022/06/28 11:52:04;;;;;;;5.03;1.75;;;11.60;82.60;;;;;;5034767;28;20030;-68
2022/06/28 11:54:31;;;;;;;5.28;1.77;;;11.50;84.20;;;;;;5045534;28;20550;-67
2022/06/28 11:56:58;;;;;;;5.40;1.30;;;11.50;84.70;;;;;;5032029;28;20033;-71
2022/06/28 11:59:54;;;;;;;4.07;2.38;;;11.40;85.00;;;;;;5041478;28;20035;-70
2022/06/28 12:02:55;;;;;;;5.03;1.55;;;11.30;85.40;;;;;;5042667;28;20545;-70
2022/06/28 12:05:34;;;;;;;6.32;1.55;;;11.30;86.10;;;;;;5038975;28;20033;-68
2022/06/28 12:08:03;;;;;;;5.05;1.35;;;11.30;87.40;;;;;;5030705;28;20040;-67
2022/06/28 12:10:34;;;;;;;5.28;1.20;;;11.30;87.20;;;;;;5043405;28;20112;-66
2022/06/28 12:13:11;;;;;;;3.53;1.60;;;11.30;87.20;;;;;;5033590;28;20057;-66
2022/06/28 12:15:39;;;;;;;3.95;1.35;;;11.30;87.10;;;;;;5031557;28;20093;-68
2022/06/28 12:18:08;;;;;;;7.88;1.77;;;11.30;87.10;;;;;;5046659;28;20040;-68
2022/06/28 12:20:36;;;;;;;7.43;1.75;;;11.30;86.90;;;;;;5036849;28;20149;-67
2022/06/28 12:23:07;;;;;;;4.05;1.42;;;11.30;86.30;;;;;;5035558;28;20320;-66
2022/06/28 12:25:35;;;;;;;6.65;1.52;;;11.30;87.00;;;;;;5043084;28;20043;-65
2022/06/28 12:28:02;;;;;;;5.53;1.70;;;11.30;85.90;;;;;;5031548;28;20072;-68
2022/06/28 12:30:30;;;;;;;13.57;5.88;;;11.40;85.80;;;;;;5048378;28;20021;-68
2022/06/28 12:32:58;;;;;;;8.55;6.00;;;11.40;85.90;;;;;;5039893;28;20049;-68
2022/06/28 12:35:25;;;;;;;5.28;2.88;;;11.40;86.20;;;;;;5038400;28;20052;-68
2022/06/28 12:37:54;;;;;;;7.65;2.33;;;11.40;86.40;;;;;;5058297;28;20036;-68
2022/06/28 12:40:21;;;;;;;8.18;2.30;;;11.40;87.30;;;;;;5049414;28;20032;-69
2022/06/28 12:42:48;;;;;;;11.40;2.45;;;11.40;88.90;;;;;;5049553;28;20496;-68
2022/06/28 12:45:16;;;;;;;10.80;1.83;;;11.40;88.80;;;;;;5048957;28;20104;-68
2022/06/28 12:47:43;;;;;;;6.25;1.98;;;11.40;89.60;;;;;;5030065;28;20026;-67
2022/06/28 12:50:13;;;;;;;5.60;2.13;;;11.30;89.60;;;;;;5031077;28;20029;-69
2022/06/28 12:52:41;;;;;;;3.67;2.10;;;11.30;90.00;;;;;;5032419;28;20092;-68
2022/06/28 12:55:10;;;;;;;6.97;2.10;;;11.30;90.40;;;;;;5036884;28;20044;-64
2022/06/28 12:57:39;;;;;;;10.75;2.25;;;11.20;90.40;;;;;;5036631;28;20536;-68
2022/06/28 13:00:11;;;;;;;10.07;2.47;;;11.20;90.50;;;;;;5056351;28;20379;-68
2022/06/28 13:02:39;;;;;;;8.25;2.80;;;11.20;90.40;;;;;;5049270;28;20059;-68
2022/06/28 13:05:07;;;;;;;8.32;2.90;;;11.20;90.50;;;;;;5039858;28;20116;-68
2022/06/28 13:07:34;;;;;;;6.05;2.80;;;11.10;90.60;;;;;;5050070;28;20075;-68
2022/06/28 13:10:02;;;;;;;10.48;3.38;;;11.10;90.70;;;;;;5046285;28;20064;-68
2022/06/28 13:12:30;;;;;;;8.10;4.55;;;11.10;90.80;;;;;;5050867;28;20036;-68